GW1765 Weather Reports


Display with metric or nautical units.
time (UTC)temp
F
wind
direction
speed
MPH
gust
MPH
rain 1hr
in
rain 24hr
in
rain mn
in
humidity
%
barometer
mb
20220930040549 56 135 19.0 26.0 0.00 0.04 0.04 72 1015.6
20220930035601 57 135 21.0 23.0 0.00 0.04 0.04 72 1015.7
20220930034532 57 180 15.0 20.0 0.00 0.04 0.04 72 1015.6
20220930033528 57 135 18.0 26.0 0.00 0.04 0.04 72 1015.5
20220930032519 58 135 17.0 21.0 0.00 0.04 0.04 71 1015.5
20220930031516 58 135 17.0 21.0 0.00 0.04 0.04 71 1015.6
20220930030626 59 128 21.0 25.0 0.01 0.04 0.04 72 1015.5
20220930025602 60 144 18.0 25.0 0.02 0.04 0.04 73 1015.4
20220930024633 59 135 13.0 17.0 0.04 0.04 0.04 74 1015.5
20220930023543 59 180 15.0 17.0 0.04 0.04 0.04 74 1015.7
20220930022559 59 142 21.0 26.0 0.04 0.04 0.04 75 1015.9
20220930021531 59 149 21.0 27.0 0.04 0.04 0.04 75 1016.0
20220930020527 59 143 17.0 23.0 0.02 0.02 0.02 75 1016.0
20220930015517 59 180 15.0 21.0 0.01 0.01 0.01 73 1016.2
20220930014614 60 135 16.0 20.0 0.00 0.00 0.00 72 1016.3
20220930013604 0 0.0 0.0 0.00 0.00 0.00 1016.3
20220930012555 62 135 15.0 17.0 0.00 0.00 0.00 70 1016.4
20220930011611 62 135 15.0 17.0 0.00 0.00 0.00 70 1016.5
20220930010541 0 0.0 0.0 0.00 0.00 0.00 1016.5
20220930005558 0 0.0 0.0 0.00 0.00 0.00 1016.6
20220930004528 0 0.0 0.0 0.00 0.00 0.00 1016.5
20220930003518 63 135 15.0 17.0 0.00 0.00 0.00 72 1016.6
20220930002640 63 135 10.0 15.0 0.00 0.00 0.00 72 1016.7
20220930001607 0 0.0 0.0 0.00 0.00 0.00 1016.8
20220930000603 0 0.0 0.0 0.00 0.00 0.00 1016.7
20220929235614 0 0.0 0.0 0.00 0.00 0.00 1016.6
20220929234711 65 180 12.0 15.0 0.00 0.00 0.00 68 1016.7
20220929233540 64 168 12.0 16.0 0.00 0.00 0.00 67 1016.7
20220929232610 64 152 13.0 17.0 0.00 0.00 0.00 66 1016.9
20220929231527 65 135 15.0 20.0 0.00 0.00 0.00 64 1017.0
20220929230517 66 135 11.0 17.0 0.00 0.00 0.00 63 1017.2
20220929225634 68 135 11.0 15.0 0.00 0.00 0.00 61 1017.3
20220929224604 71 180 9.0 15.0 0.00 0.00 0.00 61 1017.5
20220929223554 72 135 9.0 13.0 0.00 0.00 0.00 61 1017.4
20220929222632 72 159 10.0 13.0 0.00 0.00 0.00 62 1017.4
20220929221542 71 135 9.0 12.0 0.00 0.00 0.00 63 1017.5
20220929220538 70 158 10.0 11.0 0.00 0.00 0.00 66 1017.4
20220929215529 70 180 9.0 11.0 0.00 0.00 0.00 69 1017.5
20220929214525 68 187 8.0 10.0 0.00 0.00 0.00 72 1017.8
20220929213516 68 196 4.0 6.0 0.00 0.00 0.00 79 1017.9
20220929212634 65 184 1.0 2.0 0.00 0.00 0.00 81 1017.9
20220929211604 63 199 2.0 4.0 0.00 0.00 0.00 85 1017.9
20220929210554 62 203 5.0 7.0 0.00 0.00 0.00 87 1017.9
20220929204602 61 189 6.0 9.0 0.00 0.00 0.00 88 1018.1
20220929203539 60 197 4.0 5.0 0.00 0.00 0.00 89 1018.1
20220929202556 60 200 5.0 7.0 0.00 0.00 0.00 90 1018.2
20220929201546 60 180 5.0 7.0 0.00 0.00 0.00 91 1018.0
20220929200538 60 217 5.0 7.0 0.00 0.00 0.00 91 1018.0
20220929195635 59 225 5.0 6.0 0.00 0.00 0.00 91 1018.0
20220929194628 59 180 4.0 6.0 0.00 0.00 0.00 91 1017.8
20220929193623 59 205 5.0 7.0 0.00 0.00 0.00 92 1017.9
20220929192614 59 235 3.0 5.0 0.00 0.00 0.00 92 1017.6
20220929191610 59 203 1.0 4.0 0.00 0.00 0.00 92 1017.5
20220929190601 58 203 2.0 2.0 0.00 0.00 0.00 92 1017.4
20220929185530 58 0 4.0 5.0 0.00 0.00 0.00 92 1017.4
20220929184527 58 0 5.0 7.0 0.00 0.00 0.00 92 1017.3
20220929183537 58 0 5.0 8.0 0.00 0.00 0.00 92 1017.2
20220929182614 58 5 5.0 7.0 0.00 0.00 0.00 92 1017.1
20220929181645 58 0 2.0 3.0 0.00 0.00 0.00 92 1017.1
20220929180615 58 23 4.0 7.0 0.00 0.00 0.00 92 1017.1
20220929175551 58 18 4.0 6.0 0.00 0.00 0.00 92 1016.9
20220929174542 58 353 4.0 5.0 0.00 0.00 0.00 91 1017.2
20220929173538 58 339 6.0 9.0 0.00 0.00 0.00 91 1017.2
20220929172528 58 329 7.0 9.0 0.00 0.01 0.00 90 1017.2
20220929171519 58 0 7.0 9.0 0.00 0.01 0.00 89 1017.2
20220929170636 58 351 7.0 11.0 0.00 0.01 0.00 88 1017.2
20220929165646 58 0 7.0 10.0 0.00 0.01 0.00 88 1017.3
20220929164749 58 0 7.0 9.0 0.00 0.01 0.00 87 1017.0
20220929163613 58 329 6.0 8.0 0.00 0.01 0.00 87 1017.2
20220929162622 58 0 5.0 7.0 0.00 0.02 0.00 87 1017.0
20220929161540 58 0 6.0 8.0 0.00 0.02 0.00 87 1017.1
20220929160530 58 0 7.0 11.0 0.00 0.02 0.00 87 1017.0
20220929155526 58 0 7.0 9.0 0.00 0.02 0.00 87 1017.1
20220929154558 58 344 6.0 8.0 0.00 0.02 0.00 86 1017.2
20220929153614 58 347 7.0 11.0 0.00 0.02 0.00 87 1017.3
20220929152626 58 0 7.0 10.0 0.00 0.05 0.00 87 1017.2
20220929151602 58 0 7.0 10.0 0.00 0.05 0.00 87 1017.2
20220929150552 58 0 7.0 10.0 0.00 0.05 0.00 87 1017.2
20220929145604 58 360 11.0 15.0 0.00 0.06 0.00 87 1017.6
20220929144620 58 15 8.0 13.0 0.00 0.06 0.00 88 1017.4
20220929143531 58 0 8.0 10.0 0.00 0.06 0.00 88 1017.6
20220929142527 58 12 7.0 11.0 0.00 0.07 0.00 88 1017.7
20220929141518 58 20 7.0 9.0 0.00 0.07 0.00 88 1017.8
20220929140615 58 6 8.0 10.0 0.00 0.07 0.00 88 1017.8
20220929135605 58 17 8.0 12.0 0.00 0.07 0.00 88 1017.8
20220929134601 58 0 10.0 12.0 0.00 0.07 0.00 88 1017.9
20220929133552 58 353 10.0 15.0 0.00 0.07 0.00 88 1018.0
20220929132602 58 0 11.0 14.0 0.00 0.12 0.00 88 1018.0
20220929131559 58 1 10.0 14.0 0.00 0.12 0.00 88 1018.0
20220929130529 58 0 8.0 13.0 0.00 0.12 0.00 88 1018.1
20220929125545 58 352 10.0 14.0 0.00 0.12 0.00 87 1018.2
20220929124515 58 7 12.0 15.0 0.00 0.12 0.00 86 1018.3
20220929123627 58 0 11.0 16.0 0.00 0.12 0.00 86 1018.3
20220929122602 58 0 9.0 13.0 0.00 0.12 0.00 86 1018.4
20220929121553 58 345 11.0 14.0 0.00 0.12 0.00 86 1018.4
20220929120549 58 0 10.0 15.0 0.00 0.12 0.00 85 1018.3
20220929115540 58 0 11.0 15.0 0.00 0.12 0.00 84 1018.3
20220929114529 58 329 11.0 14.0 0.00 0.12 0.00 83 1018.4
20220929113526 58 0 11.0 15.0 0.00 0.12 0.00 82 1018.3
20220929112517 58 0 10.0 15.0 0.00 0.12 0.00 82 1018.4
20220929111613 58 7 11.0 15.0 0.00 0.12 0.00 82 1018.5
20220929110604 58 0 10.0 14.0 0.00 0.12 0.00 82 1018.6
20220929105635 58 0 9.0 13.0 0.00 0.12 0.12 82 1018.6
20220929104551 58 1 8.0 15.0 0.00 0.12 0.12 82 1018.8
20220929103542 58 0 10.0 14.0 0.00 0.12 0.12 83 1018.8
20220929102538 58 353 9.0 16.0 0.00 0.12 0.12 83 1019.0
20220929100526 58 0 11.0 14.0 0.00 0.12 0.12 83 1018.7
20220929095616 58 349 9.0 13.0 0.00 0.12 0.12 84 1018.8